sensor_id;sensor_type;location;lat;lon;timestamp;P1;durP1;ratioP1;P2;durP2;ratioP2
8654;SDS011;13500;52.514;13.462;2023-11-19T00:00:45;8.67;;;7.53;;
8654;SDS011;13500;52.514;13.462;2023-11-19T00:03:19;9.43;;;7.53;;
8654;SDS011;13500;52.514;13.462;2023-11-19T00:05:47;10.30;;;7.20;;
8654;SDS011;13500;52.514;13.462;2023-11-19T00:08:17;8.93;;;6.97;;
8654;SDS011;13500;52.514;13.462;2023-11-19T00:10:46;8.47;;;7.33;;
8654;SDS011;13500;52.514;13.462;2023-11-19T00:13:15;8.87;;;7.97;;
8654;SDS011;13500;52.514;13.462;2023-11-19T00:15:46;9.37;;;7.43;;
8654;SDS011;13500;52.514;13.462;2023-11-19T00:18:15;9.23;;;7.23;;
8654;SDS011;13500;52.514;13.462;2023-11-19T00:20:44;8.23;;;6.90;;
8654;SDS011;13500;52.514;13.462;2023-11-19T00:23:13;10.43;;;7.27;;
8654;SDS011;13500;52.514;13.462;2023-11-19T00:25:41;9.93;;;6.77;;
8654;SDS011;13500;52.514;13.462;2023-11-19T00:28:10;8.17;;;6.43;;
8654;SDS011;13500;52.514;13.462;2023-11-19T00:30:39;10.03;;;6.70;;
8654;SDS011;13500;52.514;13.462;2023-11-19T00:33:08;8.37;;;6.20;;
8654;SDS011;13500;52.514;13.462;2023-11-19T00:35:37;8.83;;;7.20;;
8654;SDS011;13500;52.514;13.462;2023-11-19T00:38:05;9.70;;;7.10;;
8654;SDS011;13500;52.514;13.462;2023-11-19T00:40:35;8.60;;;6.40;;
8654;SDS011;13500;52.514;13.462;2023-11-19T00:43:03;7.17;;;6.47;;
8654;SDS011;13500;52.514;13.462;2023-11-19T00:45:34;8.70;;;6.17;;
8654;SDS011;13500;52.514;13.462;2023-11-19T00:48:03;8.17;;;6.30;;
8654;SDS011;13500;52.514;13.462;2023-11-19T00:50:32;8.47;;;6.77;;
8654;SDS011;13500;52.514;13.462;2023-11-19T00:53:07;8.73;;;6.07;;
8654;SDS011;13500;52.514;13.462;2023-11-19T00:55:38;9.80;;;5.93;;
8654;SDS011;13500;52.514;13.462;2023-11-19T00:58:09;7.00;;;5.83;;
8654;SDS011;13500;52.514;13.462;2023-11-19T01:00:39;8.97;;;6.60;;
8654;SDS011;13500;52.514;13.462;2023-11-19T01:03:09;7.93;;;6.17;;
8654;SDS011;13500;52.514;13.462;2023-11-19T01:05:41;9.37;;;6.20;;
8654;SDS011;13500;52.514;13.462;2023-11-19T01:08:11;7.47;;;6.10;;
8654;SDS011;13500;52.514;13.462;2023-11-19T01:10:39;6.90;;;6.00;;
8654;SDS011;13500;52.514;13.462;2023-11-19T01:13:07;6.77;;;5.50;;
8654;SDS011;13500;52.514;13.462;2023-11-19T01:15:36;9.07;;;6.70;;
8654;SDS011;13500;52.514;13.462;2023-11-19T01:18:09;9.17;;;6.37;;
8654;SDS011;13500;52.514;13.462;2023-11-19T01:20:38;10.40;;;6.37;;
8654;SDS011;13500;52.514;13.462;2023-11-19T01:23:07;7.00;;;5.10;;
8654;SDS011;13500;52.514;13.462;2023-11-19T01:25:36;7.37;;;5.80;;
8654;SDS011;13500;52.514;13.462;2023-11-19T01:28:05;10.37;;;6.03;;
8654;SDS011;13500;52.514;13.462;2023-11-19T01:30:33;6.87;;;5.43;;
8654;SDS011;13500;52.514;13.462;2023-11-19T01:33:02;6.40;;;5.70;;
8654;SDS011;13500;52.514;13.462;2023-11-19T01:35:32;8.27;;;5.40;;
8654;SDS011;13500;52.514;13.462;2023-11-19T01:38:03;6.70;;;5.50;;
8654;SDS011;13500;52.514;13.462;2023-11-19T01:40:33;6.13;;;5.43;;
8654;SDS011;13500;52.514;13.462;2023-11-19T01:43:02;6.70;;;5.77;;
8654;SDS011;13500;52.514;13.462;2023-11-19T01:45:30;7.27;;;5.90;;
8654;SDS011;13500;52.514;13.462;2023-11-19T01:48:02;7.40;;;5.77;;
8654;SDS011;13500;52.514;13.462;2023-11-19T01:50:33;6.90;;;5.27;;
8654;SDS011;13500;52.514;13.462;2023-11-19T01:53:02;6.00;;;5.20;;
8654;SDS011;13500;52.514;13.462;2023-11-19T01:55:30;5.87;;;5.07;;
8654;SDS011;13500;52.514;13.462;2023-11-19T01:58:00;6.63;;;5.80;;
8654;SDS011;13500;52.514;13.462;2023-11-19T02:00:30;6.90;;;5.40;;
8654;SDS011;13500;52.514;13.462;2023-11-19T02:03:00;6.23;;;5.30;;
8654;SDS011;13500;52.514;13.462;2023-11-19T02:05:30;6.80;;;6.10;;
8654;SDS011;13500;52.514;13.462;2023-11-19T02:08:00;7.27;;;5.23;;
8654;SDS011;13500;52.514;13.462;2023-11-19T02:10:30;6.67;;;5.80;;
8654;SDS011;13500;52.514;13.462;2023-11-19T02:13:00;6.47;;;5.40;;
8654;SDS011;13500;52.514;13.462;2023-11-19T02:15:32;7.20;;;5.90;;
8654;SDS011;13500;52.514;13.462;2023-11-19T02:18:16;7.67;;;5.60;;
8654;SDS011;13500;52.514;13.462;2023-11-19T02:20:45;7.30;;;5.37;;
8654;SDS011;13500;52.514;13.462;2023-11-19T02:23:18;6.73;;;5.43;;
8654;SDS011;13500;52.514;13.462;2023-11-19T02:25:51;7.67;;;5.47;;
8654;SDS011;13500;52.514;13.462;2023-11-19T02:28:28;6.57;;;5.67;;
8654;SDS011;13500;52.514;13.462;2023-11-19T02:30:57;7.33;;;5.60;;
8654;SDS011;13500;52.514;13.462;2023-11-19T02:33:26;7.00;;;6.03;;
8654;SDS011;13500;52.514;13.462;2023-11-19T02:35:56;6.00;;;5.40;;
8654;SDS011;13500;52.514;13.462;2023-11-19T02:38:24;6.47;;;5.43;;
8654;SDS011;13500;52.514;13.462;2023-11-19T02:40:52;8.17;;;5.60;;
8654;SDS011;13500;52.514;13.462;2023-11-19T02:43:21;6.73;;;5.37;;
8654;SDS011;13500;52.514;13.462;2023-11-19T02:45:51;6.60;;;5.00;;
8654;SDS011;13500;52.514;13.462;2023-11-19T02:48:22;6.80;;;5.00;;
8654;SDS011;13500;52.514;13.462;2023-11-19T02:50:51;6.97;;;4.70;;
8654;SDS011;13500;52.514;13.462;2023-11-19T02:53:19;5.43;;;3.93;;
8654;SDS011;13500;52.514;13.462;2023-11-19T02:55:48;6.63;;;5.50;;
8654;SDS011;13500;52.514;13.462;2023-11-19T02:58:19;6.13;;;4.70;;
8654;SDS011;13500;52.514;13.462;2023-11-19T03:00:52;5.97;;;5.17;;
8654;SDS011;13500;52.514;13.462;2023-11-19T03:03:24;5.93;;;4.57;;
8654;SDS011;13500;52.514;13.462;2023-11-19T03:05:55;5.63;;;4.30;;
8654;SDS011;13500;52.514;13.462;2023-11-19T03:08:24;5.03;;;4.30;;
8654;SDS011;13500;52.514;13.462;2023-11-19T03:10:52;5.40;;;4.33;;
8654;SDS011;13500;52.514;13.462;2023-11-19T03:13:22;5.53;;;4.47;;
8654;SDS011;13500;52.514;13.462;2023-11-19T03:15:52;6.87;;;4.27;;
8654;SDS011;13500;52.514;13.462;2023-11-19T03:18:22;4.77;;;4.17;;
8654;SDS011;13500;52.514;13.462;2023-11-19T03:20:50;4.70;;;3.97;;
8654;SDS011;13500;52.514;13.462;2023-11-19T03:23:18;4.77;;;3.93;;
8654;SDS011;13500;52.514;13.462;2023-11-19T03:25:47;4.27;;;3.83;;
8654;SDS011;13500;52.514;13.462;2023-11-19T03:28:15;4.93;;;4.10;;
8654;SDS011;13500;52.514;13.462;2023-11-19T03:30:43;4.50;;;4.10;;
8654;SDS011;13500;52.514;13.462;2023-11-19T03:33:14;5.07;;;4.30;;
8654;SDS011;13500;52.514;13.462;2023-11-19T03:35:42;5.17;;;4.17;;
8654;SDS011;13500;52.514;13.462;2023-11-19T03:38:11;5.40;;;4.27;;
8654;SDS011;13500;52.514;13.462;2023-11-19T03:40:39;4.63;;;4.13;;
8654;SDS011;13500;52.514;13.462;2023-11-19T03:43:07;8.73;;;4.53;;
8654;SDS011;13500;52.514;13.462;2023-11-19T03:45:39;6.67;;;4.83;;
8654;SDS011;13500;52.514;13.462;2023-11-19T03:48:07;5.97;;;5.10;;
8654;SDS011;13500;52.514;13.462;2023-11-19T03:50:37;8.43;;;6.00;;
8654;SDS011;13500;52.514;13.462;2023-11-19T03:53:06;8.50;;;6.10;;
8654;SDS011;13500;52.514;13.462;2023-11-19T03:55:35;7.37;;;6.37;;
8654;SDS011;13500;52.514;13.462;2023-11-19T03:58:03;8.33;;;6.67;;
8654;SDS011;13500;52.514;13.462;2023-11-19T04:00:31;9.10;;;6.80;;
8654;SDS011;13500;52.514;13.462;2023-11-19T04:02:59;9.73;;;7.87;;
8654;SDS011;13500;52.514;13.462;2023-11-19T04:05:28;11.43;;;8.07;;
8654;SDS011;13500;52.514;13.462;2023-11-19T04:07:58;13.27;;;7.73;;
8654;SDS011;13500;52.514;13.462;2023-11-19T04:10:28;9.70;;;8.40;;
8654;SDS011;13500;52.514;13.462;2023-11-19T04:12:56;13.90;;;9.30;;
8654;SDS011;13500;52.514;13.462;2023-11-19T04:15:25;15.07;;;9.00;;
8654;SDS011;13500;52.514;13.462;2023-11-19T04:17:57;15.57;;;9.80;;
8654;SDS011;13500;52.514;13.462;2023-11-19T04:20:27;11.80;;;9.73;;
8654;SDS011;13500;52.514;13.462;2023-11-19T04:22:55;16.73;;;9.67;;
8654;SDS011;13500;52.514;13.462;2023-11-19T04:25:27;13.03;;;9.90;;
8654;SDS011;13500;52.514;13.462;2023-11-19T04:27:56;12.27;;;9.03;;
8654;SDS011;13500;52.514;13.462;2023-11-19T04:30:24;14.20;;;9.90;;
8654;SDS011;13500;52.514;13.462;2023-11-19T04:32:53;15.57;;;9.90;;
8654;SDS011;13500;52.514;13.462;2023-11-19T04:35:21;14.67;;;10.50;;
8654;SDS011;13500;52.514;13.462;2023-11-19T04:37:50;11.83;;;9.60;;
8654;SDS011;13500;52.514;13.462;2023-11-19T04:40:20;12.77;;;10.03;;
8654;SDS011;13500;52.514;13.462;2023-11-19T04:42:49;14.60;;;9.97;;
8654;SDS011;13500;52.514;13.462;2023-11-19T04:45:18;12.27;;;9.77;;
8654;SDS011;13500;52.514;13.462;2023-11-19T04:47:47;14.63;;;11.00;;
8654;SDS011;13500;52.514;13.462;2023-11-19T04:50:15;14.27;;;10.63;;
8654;SDS011;13500;52.514;13.462;2023-11-19T04:52:44;15.00;;;10.60;;
8654;SDS011;13500;52.514;13.462;2023-11-19T04:55:14;16.17;;;10.50;;
8654;SDS011;13500;52.514;13.462;2023-11-19T04:57:44;16.63;;;11.13;;
8654;SDS011;13500;52.514;13.462;2023-11-19T05:00:17;15.10;;;10.80;;
8654;SDS011;13500;52.514;13.462;2023-11-19T05:02:48;18.30;;;11.67;;
8654;SDS011;13500;52.514;13.462;2023-11-19T05:05:17;18.10;;;11.63;;
8654;SDS011;13500;52.514;13.462;2023-11-19T05:07:45;18.83;;;12.90;;
8654;SDS011;13500;52.514;13.462;2023-11-19T05:10:14;19.70;;;13.03;;
8654;SDS011;13500;52.514;13.462;2023-11-19T05:12:45;19.93;;;13.30;;
8654;SDS011;13500;52.514;13.462;2023-11-19T05:15:15;17.20;;;11.77;;
8654;SDS011;13500;52.514;13.462;2023-11-19T05:17:44;16.87;;;12.20;;
8654;SDS011;13500;52.514;13.462;2023-11-19T05:20:13;21.17;;;12.47;;
8654;SDS011;13500;52.514;13.462;2023-11-19T05:22:43;18.73;;;12.00;;
8654;SDS011;13500;52.514;13.462;2023-11-19T05:25:13;27.17;;;13.37;;
8654;SDS011;13500;52.514;13.462;2023-11-19T05:27:43;19.50;;;13.20;;
8654;SDS011;13500;52.514;13.462;2023-11-19T05:30:15;20.60;;;13.67;;
8654;SDS011;13500;52.514;13.462;2023-11-19T05:32:43;21.47;;;13.50;;
8654;SDS011;13500;52.514;13.462;2023-11-19T05:35:13;22.93;;;14.27;;
8654;SDS011;13500;52.514;13.462;2023-11-19T05:37:41;26.47;;;13.87;;
8654;SDS011;13500;52.514;13.462;2023-11-19T05:40:10;24.63;;;14.47;;
8654;SDS011;13500;52.514;13.462;2023-11-19T05:42:42;23.67;;;13.70;;
8654;SDS011;13500;52.514;13.462;2023-11-19T05:45:10;20.43;;;13.23;;
8654;SDS011;13500;52.514;13.462;2023-11-19T05:47:41;19.33;;;12.93;;
8654;SDS011;13500;52.514;13.462;2023-11-19T05:50:10;20.03;;;13.17;;
8654;SDS011;13500;52.514;13.462;2023-11-19T05:52:39;22.57;;;13.07;;
8654;SDS011;13500;52.514;13.462;2023-11-19T05:55:07;19.63;;;13.00;;
8654;SDS011;13500;52.514;13.462;2023-11-19T05:57:37;15.57;;;11.73;;
8654;SDS011;13500;52.514;13.462;2023-11-19T06:00:09;20.60;;;12.63;;
8654;SDS011;13500;52.514;13.462;2023-11-19T06:02:41;25.77;;;14.43;;
8654;SDS011;13500;52.514;13.462;2023-11-19T06:05:14;19.70;;;12.70;;
8654;SDS011;13500;52.514;13.462;2023-11-19T06:07:43;20.83;;;13.20;;
8654;SDS011;13500;52.514;13.462;2023-11-19T06:10:15;19.30;;;12.53;;
8654;SDS011;13500;52.514;13.462;2023-11-19T06:12:44;21.43;;;13.13;;
8654;SDS011;13500;52.514;13.462;2023-11-19T06:15:14;24.13;;;13.37;;
8654;SDS011;13500;52.514;13.462;2023-11-19T06:17:45;21.23;;;12.47;;
8654;SDS011;13500;52.514;13.462;2023-11-19T06:20:14;18.97;;;11.57;;
8654;SDS011;13500;52.514;13.462;2023-11-19T06:22:43;19.20;;;12.10;;
8654;SDS011;13500;52.514;13.462;2023-11-19T06:25:13;20.47;;;13.33;;
8654;SDS011;13500;52.514;13.462;2023-11-19T06:27:43;18.00;;;12.00;;
8654;SDS011;13500;52.514;13.462;2023-11-19T06:30:11;20.50;;;13.07;;
8654;SDS011;13500;52.514;13.462;2023-11-19T06:32:41;17.27;;;12.10;;
8654;SDS011;13500;52.514;13.462;2023-11-19T06:35:14;16.37;;;11.80;;
8654;SDS011;13500;52.514;13.462;2023-11-19T06:37:44;22.77;;;11.97;;
8654;SDS011;13500;52.514;13.462;2023-11-19T06:40:13;18.90;;;11.77;;
8654;SDS011;13500;52.514;13.462;2023-11-19T06:42:43;17.80;;;12.37;;
8654;SDS011;13500;52.514;13.462;2023-11-19T06:45:11;21.73;;;11.93;;
8654;SDS011;13500;52.514;13.462;2023-11-19T06:47:41;21.73;;;11.87;;
8654;SDS011;13500;52.514;13.462;2023-11-19T06:50:11;21.00;;;12.60;;
8654;SDS011;13500;52.514;13.462;2023-11-19T06:52:40;19.50;;;12.40;;
8654;SDS011;13500;52.514;13.462;2023-11-19T06:55:09;17.70;;;11.17;;
8654;SDS011;13500;52.514;13.462;2023-11-19T06:57:38;19.27;;;12.23;;
8654;SDS011;13500;52.514;13.462;2023-11-19T07:00:07;18.20;;;11.50;;
8654;SDS011;13500;52.514;13.462;2023-11-19T07:02:36;19.13;;;11.33;;
8654;SDS011;13500;52.514;13.462;2023-11-19T07:05:05;19.60;;;11.37;;
8654;SDS011;13500;52.514;13.462;2023-11-19T07:07:36;17.80;;;11.40;;
8654;SDS011;13500;52.514;13.462;2023-11-19T07:10:06;15.63;;;11.10;;
8654;SDS011;13500;52.514;13.462;2023-11-19T07:12:36;16.83;;;11.40;;
8654;SDS011;13500;52.514;13.462;2023-11-19T07:15:05;16.67;;;11.50;;
8654;SDS011;13500;52.514;13.462;2023-11-19T07:17:34;21.87;;;11.23;;
8654;SDS011;13500;52.514;13.462;2023-11-19T07:20:03;19.83;;;11.90;;
8654;SDS011;13500;52.514;13.462;2023-11-19T07:22:33;13.83;;;9.50;;
8654;SDS011;13500;52.514;13.462;2023-11-19T07:25:03;14.03;;;9.97;;
8654;SDS011;13500;52.514;13.462;2023-11-19T07:27:32;17.93;;;11.10;;
8654;SDS011;13500;52.514;13.462;2023-11-19T07:30:00;15.90;;;10.30;;
8654;SDS011;13500;52.514;13.462;2023-11-19T07:32:29;15.63;;;10.43;;
8654;SDS011;13500;52.514;13.462;2023-11-19T07:34:59;15.27;;;10.23;;
8654;SDS011;13500;52.514;13.462;2023-11-19T07:37:31;14.87;;;10.90;;
8654;SDS011;13500;52.514;13.462;2023-11-19T07:39:59;14.50;;;10.77;;
8654;SDS011;13500;52.514;13.462;2023-11-19T07:42:31;17.03;;;10.83;;
8654;SDS011;13500;52.514;13.462;2023-11-19T07:45:00;16.00;;;10.43;;
8654;SDS011;13500;52.514;13.462;2023-11-19T07:47:29;16.23;;;10.70;;
8654;SDS011;13500;52.514;13.462;2023-11-19T07:49:58;14.50;;;10.50;;
8654;SDS011;13500;52.514;13.462;2023-11-19T07:52:28;14.87;;;10.40;;
8654;SDS011;13500;52.514;13.462;2023-11-19T07:54:58;18.33;;;11.83;;
8654;SDS011;13500;52.514;13.462;2023-11-19T07:57:31;17.97;;;12.10;;
8654;SDS011;13500;52.514;13.462;2023-11-19T07:59:59;18.73;;;11.70;;
8654;SDS011;13500;52.514;13.462;2023-11-19T08:02:38;18.53;;;11.40;;
8654;SDS011;13500;52.514;13.462;2023-11-19T08:05:06;16.47;;;11.40;;
8654;SDS011;13500;52.514;13.462;2023-11-19T08:07:36;18.10;;;11.73;;
8654;SDS011;13500;52.514;13.462;2023-11-19T08:10:05;15.80;;;11.43;;
8654;SDS011;13500;52.514;13.462;2023-11-19T08:12:38;19.17;;;11.63;;
8654;SDS011;13500;52.514;13.462;2023-11-19T08:15:07;19.30;;;12.73;;
8654;SDS011;13500;52.514;13.462;2023-11-19T08:17:36;16.30;;;12.10;;
8654;SDS011;13500;52.514;13.462;2023-11-19T08:20:05;17.77;;;12.37;;
8654;SDS011;13500;52.514;13.462;2023-11-19T08:22:37;18.43;;;11.53;;
8654;SDS011;13500;52.514;13.462;2023-11-19T08:25:06;18.80;;;12.43;;
8654;SDS011;13500;52.514;13.462;2023-11-19T08:27:36;20.43;;;12.37;;
8654;SDS011;13500;52.514;13.462;2023-11-19T08:30:12;16.97;;;11.93;;
8654;SDS011;13500;52.514;13.462;2023-11-19T08:32:41;17.33;;;11.30;;
8654;SDS011;13500;52.514;13.462;2023-11-19T08:35:10;17.93;;;11.70;;
8654;SDS011;13500;52.514;13.462;2023-11-19T08:37:39;20.57;;;14.00;;
8654;SDS011;13500;52.514;13.462;2023-11-19T08:40:10;17.87;;;11.73;;
8654;SDS011;13500;52.514;13.462;2023-11-19T08:42:41;16.90;;;11.57;;
8654;SDS011;13500;52.514;13.462;2023-11-19T08:45:10;17.53;;;11.67;;
8654;SDS011;13500;52.514;13.462;2023-11-19T08:47:41;16.27;;;11.23;;
8654;SDS011;13500;52.514;13.462;2023-11-19T08:50:11;17.40;;;11.50;;
8654;SDS011;13500;52.514;13.462;2023-11-19T08:52:40;18.73;;;11.67;;
8654;SDS011;13500;52.514;13.462;2023-11-19T08:55:11;18.17;;;12.53;;
8654;SDS011;13500;52.514;13.462;2023-11-19T08:57:42;21.43;;;14.80;;
8654;SDS011;13500;52.514;13.462;2023-11-19T09:00:11;15.90;;;11.20;;
8654;SDS011;13500;52.514;13.462;2023-11-19T09:02:41;17.47;;;12.73;;
8654;SDS011;13500;52.514;13.462;2023-11-19T09:05:11;28.70;;;23.30;;
8654;SDS011;13500;52.514;13.462;2023-11-19T09:07:40;40.80;;;31.67;;
8654;SDS011;13500;52.514;13.462;2023-11-19T09:10:09;32.53;;;25.20;;
8654;SDS011;13500;52.514;13.462;2023-11-19T09:12:38;24.87;;;19.63;;
8654;SDS011;13500;52.514;13.462;2023-11-19T09:15:09;24.40;;;17.27;;
8654;SDS011;13500;52.514;13.462;2023-11-19T09:17:38;21.27;;;14.03;;
8654;SDS011;13500;52.514;13.462;2023-11-19T09:20:07;22.20;;;15.57;;
8654;SDS011;13500;52.514;13.462;2023-11-19T09:22:39;30.40;;;21.27;;
8654;SDS011;13500;52.514;13.462;2023-11-19T09:25:07;18.80;;;13.07;;
8654;SDS011;13500;52.514;13.462;2023-11-19T09:27:36;19.60;;;11.90;;
8654;SDS011;13500;52.514;13.462;2023-11-19T09:30:06;20.83;;;16.00;;
8654;SDS011;13500;52.514;13.462;2023-11-19T09:32:37;19.53;;;12.43;;
8654;SDS011;13500;52.514;13.462;2023-11-19T09:35:07;14.87;;;12.50;;
8654;SDS011;13500;52.514;13.462;2023-11-19T09:37:39;16.27;;;12.23;;
8654;SDS011;13500;52.514;13.462;2023-11-19T09:40:09;17.23;;;12.53;;
8654;SDS011;13500;52.514;13.462;2023-11-19T09:42:44;16.63;;;11.20;;
8654;SDS011;13500;52.514;13.462;2023-11-19T09:45:14;15.50;;;10.30;;
8654;SDS011;13500;52.514;13.462;2023-11-19T09:47:46;14.80;;;11.47;;
8654;SDS011;13500;52.514;13.462;2023-11-19T09:50:17;13.37;;;11.20;;
8654;SDS011;13500;52.514;13.462;2023-11-19T09:52:46;14.10;;;10.87;;
8654;SDS011;13500;52.514;13.462;2023-11-19T09:55:15;19.30;;;14.07;;
8654;SDS011;13500;52.514;13.462;2023-11-19T09:57:44;13.67;;;9.77;;
8654;SDS011;13500;52.514;13.462;2023-11-19T10:00:15;14.50;;;11.30;;
8654;SDS011;13500;52.514;13.462;2023-11-19T10:02:47;10.27;;;9.17;;
8654;SDS011;13500;52.514;13.462;2023-11-19T10:05:17;9.70;;;6.80;;
8654;SDS011;13500;52.514;13.462;2023-11-19T10:07:50;11.77;;;9.07;;
8654;SDS011;13500;52.514;13.462;2023-11-19T10:10:23;8.63;;;6.80;;
8654;SDS011;13500;52.514;13.462;2023-11-19T10:12:51;8.27;;;6.30;;
8654;SDS011;13500;52.514;13.462;2023-11-19T10:15:24;9.40;;;5.27;;
8654;SDS011;13500;52.514;13.462;2023-11-19T10:17:56;7.83;;;4.80;;
8654;SDS011;13500;52.514;13.462;2023-11-19T10:20:28;10.00;;;4.60;;
8654;SDS011;13500;52.514;13.462;2023-11-19T10:22:56;7.97;;;4.83;;
8654;SDS011;13500;52.514;13.462;2023-11-19T10:25:25;8.47;;;4.67;;
8654;SDS011;13500;52.514;13.462;2023-11-19T10:27:54;7.83;;;4.00;;
8654;SDS011;13500;52.514;13.462;2023-11-19T10:30:23;5.40;;;3.53;;
8654;SDS011;13500;52.514;13.462;2023-11-19T10:33:07;9.60;;;3.80;;
8654;SDS011;13500;52.514;13.462;2023-11-19T10:35:50;6.73;;;3.70;;
8654;SDS011;13500;52.514;13.462;2023-11-19T10:38:22;9.17;;;4.10;;
8654;SDS011;13500;52.514;13.462;2023-11-19T10:40:52;7.53;;;3.90;;
8654;SDS011;13500;52.514;13.462;2023-11-19T10:43:21;11.23;;;9.10;;
8654;SDS011;13500;52.514;13.462;2023-11-19T10:45:50;7.13;;;3.57;;
8654;SDS011;13500;52.514;13.462;2023-11-19T10:48:20;7.93;;;4.03;;
8654;SDS011;13500;52.514;13.462;2023-11-19T10:50:53;7.23;;;4.03;;
8654;SDS011;13500;52.514;13.462;2023-11-19T10:53:22;10.33;;;4.50;;
8654;SDS011;13500;52.514;13.462;2023-11-19T10:55:56;7.73;;;3.80;;
8654;SDS011;13500;52.514;13.462;2023-11-19T10:58:26;9.00;;;3.60;;
8654;SDS011;13500;52.514;13.462;2023-11-19T11:01:01;10.87;;;3.70;;
8654;SDS011;13500;52.514;13.462;2023-11-19T11:03:35;8.53;;;3.60;;
8654;SDS011;13500;52.514;13.462;2023-11-19T11:06:08;9.13;;;4.00;;
8654;SDS011;13500;52.514;13.462;2023-11-19T11:08:37;8.63;;;3.50;;
8654;SDS011;13500;52.514;13.462;2023-11-19T11:11:07;9.97;;;3.43;;
8654;SDS011;13500;52.514;13.462;2023-11-19T11:13:37;11.70;;;4.90;;
8654;SDS011;13500;52.514;13.462;2023-11-19T11:16:11;13.47;;;4.00;;
8654;SDS011;13500;52.514;13.462;2023-11-19T11:18:41;8.23;;;4.00;;
8654;SDS011;13500;52.514;13.462;2023-11-19T11:21:11;9.80;;;3.47;;
8654;SDS011;13500;52.514;13.462;2023-11-19T11:23:56;10.57;;;3.33;;
8654;SDS011;13500;52.514;13.462;2023-11-19T11:26:50;9.37;;;3.60;;
8654;SDS011;13500;52.514;13.462;2023-11-19T11:29:41;9.67;;;3.37;;
8654;SDS011;13500;52.514;13.462;2023-11-19T11:32:16;10.30;;;3.40;;
8654;SDS011;13500;52.514;13.462;2023-11-19T11:34:58;7.00;;;2.77;;
8654;SDS011;13500;52.514;13.462;2023-11-19T11:37:32;9.83;;;3.10;;
8654;SDS011;13500;52.514;13.462;2023-11-19T11:40:01;10.07;;;3.50;;
8654;SDS011;13500;52.514;13.462;2023-11-19T11:42:37;11.07;;;3.53;;
8654;SDS011;13500;52.514;13.462;2023-11-19T11:45:06;12.07;;;3.40;;
8654;SDS011;13500;52.514;13.462;2023-11-19T11:53:33;10.33;;;3.90;;
8654;SDS011;13500;52.514;13.462;2023-11-19T11:56:05;11.40;;;3.70;;
8654;SDS011;13500;52.514;13.462;2023-11-19T11:58:36;10.13;;;3.80;;
8654;SDS011;13500;52.514;13.462;2023-11-19T12:01:14;9.77;;;3.93;;
8654;SDS011;13500;52.514;13.462;2023-11-19T12:03:46;12.57;;;3.53;;
8654;SDS011;13500;52.514;13.462;2023-11-19T12:06:17;15.33;;;4.17;;
8654;SDS011;13500;52.514;13.462;2023-11-19T12:08:48;15.50;;;4.23;;
8654;SDS011;13500;52.514;13.462;2023-11-19T12:11:19;14.40;;;4.00;;
8654;SDS011;13500;52.514;13.462;2023-11-19T12:13:55;12.43;;;4.17;;
8654;SDS011;13500;52.514;13.462;2023-11-19T12:16:24;13.43;;;3.93;;
8654;SDS011;13500;52.514;13.462;2023-11-19T12:18:57;15.77;;;3.80;;
8654;SDS011;13500;52.514;13.462;2023-11-19T12:21:34;18.53;;;4.80;;
8654;SDS011;13500;52.514;13.462;2023-11-19T12:24:05;12.93;;;3.90;;
8654;SDS011;13500;52.514;13.462;2023-11-19T12:26:35;15.43;;;4.03;;
8654;SDS011;13500;52.514;13.462;2023-11-19T12:29:07;10.43;;;4.10;;
8654;SDS011;13500;52.514;13.462;2023-11-19T12:31:36;14.90;;;5.40;;
8654;SDS011;13500;52.514;13.462;2023-11-19T12:34:06;19.00;;;4.67;;
8654;SDS011;13500;52.514;13.462;2023-11-19T12:36:41;11.20;;;4.03;;
8654;SDS011;13500;52.514;13.462;2023-11-19T12:39:10;14.40;;;4.80;;
8654;SDS011;13500;52.514;13.462;2023-11-19T12:41:51;15.60;;;4.03;;
8654;SDS011;13500;52.514;13.462;2023-11-19T12:44:21;16.97;;;4.60;;
8654;SDS011;13500;52.514;13.462;2023-11-19T12:47:01;17.40;;;4.83;;
8654;SDS011;13500;52.514;13.462;2023-11-19T12:49:31;15.07;;;4.30;;
8654;SDS011;13500;52.514;13.462;2023-11-19T12:52:01;15.50;;;4.73;;
8654;SDS011;13500;52.514;13.462;2023-11-19T12:54:31;17.80;;;4.87;;
8654;SDS011;13500;52.514;13.462;2023-11-19T12:57:01;13.67;;;4.60;;
8654;SDS011;13500;52.514;13.462;2023-11-19T12:59:29;17.37;;;4.43;;
8654;SDS011;13500;52.514;13.462;2023-11-19T13:01:59;18.63;;;5.57;;
8654;SDS011;13500;52.514;13.462;2023-11-19T13:04:29;16.80;;;4.57;;
8654;SDS011;13500;52.514;13.462;2023-11-19T13:07:00;13.60;;;4.23;;
8654;SDS011;13500;52.514;13.462;2023-11-19T13:09:34;15.73;;;4.23;;
8654;SDS011;13500;52.514;13.462;2023-11-19T13:12:11;16.77;;;4.73;;
8654;SDS011;13500;52.514;13.462;2023-11-19T13:14:39;19.20;;;4.43;;
8654;SDS011;13500;52.514;13.462;2023-11-19T13:17:09;15.73;;;4.80;;
8654;SDS011;13500;52.514;13.462;2023-11-19T13:19:41;18.23;;;4.90;;
8654;SDS011;13500;52.514;13.462;2023-11-19T13:22:12;21.47;;;5.10;;
8654;SDS011;13500;52.514;13.462;2023-11-19T13:24:40;23.27;;;5.17;;
8654;SDS011;13500;52.514;13.462;2023-11-19T13:27:09;22.30;;;5.60;;
8654;SDS011;13500;52.514;13.462;2023-11-19T13:29:38;21.87;;;5.50;;
8654;SDS011;13500;52.514;13.462;2023-11-19T13:32:10;21.53;;;5.37;;
8654;SDS011;13500;52.514;13.462;2023-11-19T13:34:38;19.40;;;5.07;;
8654;SDS011;13500;52.514;13.462;2023-11-19T13:37:07;19.20;;;4.90;;
8654;SDS011;13500;52.514;13.462;2023-11-19T13:39:36;16.47;;;5.50;;
8654;SDS011;13500;52.514;13.462;2023-11-19T13:42:10;16.07;;;5.27;;
8654;SDS011;13500;52.514;13.462;2023-11-19T13:44:39;19.87;;;4.53;;
8654;SDS011;13500;52.514;13.462;2023-11-19T13:47:09;19.17;;;5.20;;
8654;SDS011;13500;52.514;13.462;2023-11-19T13:49:38;15.67;;;4.83;;
8654;SDS011;13500;52.514;13.462;2023-11-19T13:52:06;17.30;;;5.67;;
8654;SDS011;13500;52.514;13.462;2023-11-19T13:54:34;19.23;;;5.27;;
8654;SDS011;13500;52.514;13.462;2023-11-19T13:57:04;19.60;;;6.47;;
8654;SDS011;13500;52.514;13.462;2023-11-19T13:59:32;24.10;;;8.33;;
8654;SDS011;13500;52.514;13.462;2023-11-19T14:02:02;18.43;;;6.23;;
8654;SDS011;13500;52.514;13.462;2023-11-19T14:04:33;20.40;;;5.63;;
8654;SDS011;13500;52.514;13.462;2023-11-19T14:07:02;17.87;;;5.47;;
8654;SDS011;13500;52.514;13.462;2023-11-19T14:09:30;17.30;;;5.47;;
8654;SDS011;13500;52.514;13.462;2023-11-19T14:11:59;40.73;;;16.10;;
8654;SDS011;13500;52.514;13.462;2023-11-19T14:14:28;18.33;;;5.33;;
8654;SDS011;13500;52.514;13.462;2023-11-19T14:16:56;21.60;;;6.20;;
8654;SDS011;13500;52.514;13.462;2023-11-19T14:19:39;48.50;;;19.43;;
8654;SDS011;13500;52.514;13.462;2023-11-19T14:22:09;35.60;;;14.03;;
8654;SDS011;13500;52.514;13.462;2023-11-19T14:24:39;32.40;;;12.13;;
8654;SDS011;13500;52.514;13.462;2023-11-19T14:27:09;25.50;;;6.63;;
8654;SDS011;13500;52.514;13.462;2023-11-19T14:29:39;21.40;;;5.73;;
8654;SDS011;13500;52.514;13.462;2023-11-19T14:32:07;20.27;;;7.33;;
8654;SDS011;13500;52.514;13.462;2023-11-19T14:34:36;23.20;;;8.57;;
8654;SDS011;13500;52.514;13.462;2023-11-19T14:37:04;28.63;;;10.13;;
8654;SDS011;13500;52.514;13.462;2023-11-19T14:39:33;22.70;;;7.63;;
8654;SDS011;13500;52.514;13.462;2023-11-19T14:42:03;19.07;;;6.30;;
8654;SDS011;13500;52.514;13.462;2023-11-19T14:44:32;17.37;;;5.93;;
8654;SDS011;13500;52.514;13.462;2023-11-19T14:47:04;24.00;;;9.20;;
8654;SDS011;13500;52.514;13.462;2023-11-19T14:49:34;21.93;;;6.07;;
8654;SDS011;13500;52.514;13.462;2023-11-19T14:52:04;18.93;;;6.33;;
8654;SDS011;13500;52.514;13.462;2023-11-19T14:54:35;24.80;;;5.50;;
8654;SDS011;13500;52.514;13.462;2023-11-19T14:57:05;17.03;;;5.60;;